<?xml version="1.0" encoding="UTF-8" standalone="no" ?>
<gpx xmlns="http://www.topografix.com/GPX/1/1" xmlns:xsi="http://www.w3.org/2001/XMLSchema-instance" xsi:schemaLocation="http://www.topografix.com/GPX/1/1 http://www.topografix.com/GPX/1/1/gpx.xsd" version="1.1" creator="VisuGPX - https://www.visugpx.com">
  <metadata>
    <name>Gorges de Daluis</name>
    <desc><![CDATA[Gorges de Daluis, sentier du point sublime]]></desc>
  </metadata>
  <trk>
    <name><![CDATA[Gorges de Daluis_1]]></name>
    <trkseg>
      <trkpt lat="44.04173" lon="6.83322">
        <ele>920.3</ele>
        <time>2017-05-27T11:18:24Z</time>
      </trkpt>
      <trkpt lat="44.04173" lon="6.83322">
        <ele>920.3</ele>
        <time>2017-05-27T11:18:24Z</time>
      </trkpt>
      <trkpt lat="44.04165" lon="6.83315">
        <ele>920.4</ele>
        <time>2017-05-27T11:18:27Z</time>
      </trkpt>
      <trkpt lat="44.04163" lon="6.83304">
        <ele>920.4</ele>
        <time>2017-05-27T11:18:31Z</time>
      </trkpt>
      <trkpt lat="44.04164" lon="6.83294">
        <ele>920.3</ele>
        <time>2017-05-27T11:18:36Z</time>
      </trkpt>
      <trkpt lat="44.04166" lon="6.83284">
        <ele>920.2</ele>
        <time>2017-05-27T11:18:42Z</time>
      </trkpt>
      <trkpt lat="44.04168" lon="6.83275">
        <ele>920.4</ele>
        <time>2017-05-27T11:18:49Z</time>
      </trkpt>
      <trkpt lat="44.04168" lon="6.83275">
        <ele>920.5</ele>
        <time>2017-05-27T11:18:56Z</time>
      </trkpt>
      <trkpt lat="44.04176" lon="6.8328">
        <ele>920.6</ele>
        <time>2017-05-27T11:19:09Z</time>
      </trkpt>
      <trkpt lat="44.04177" lon="6.83282">
        <ele>920.5</ele>
        <time>2017-05-27T11:19:16Z</time>
      </trkpt>
      <trkpt lat="44.04182" lon="6.83283">
        <ele>920.4</ele>
        <time>2017-05-27T11:19:23Z</time>
      </trkpt>
      <trkpt lat="44.04182" lon="6.83283">
        <ele>920.4</ele>
        <time>2017-05-27T11:19:29Z</time>
      </trkpt>
      <trkpt lat="44.0418" lon="6.83281">
        <ele>920</ele>
        <time>2017-05-27T11:19:43Z</time>
      </trkpt>
      <trkpt lat="44.0418" lon="6.83281">
        <ele>920</ele>
        <time>2017-05-27T11:19:45Z</time>
      </trkpt>
      <trkpt lat="44.042" lon="6.83263">
        <ele>879.2</ele>
        <time>2017-05-27T11:19:53Z</time>
      </trkpt>
      <trkpt lat="44.0421" lon="6.83271">
        <ele>843.4</ele>
        <time>2017-05-27T11:19:55Z</time>
      </trkpt>
      <trkpt lat="44.04217" lon="6.83274">
        <ele>806.6</ele>
        <time>2017-05-27T11:20:01Z</time>
      </trkpt>
      <trkpt lat="44.04225" lon="6.8328">
        <ele>787.6</ele>
        <time>2017-05-27T11:20:05Z</time>
      </trkpt>
      <trkpt lat="44.04228" lon="6.8328">
        <ele>781.5</ele>
        <time>2017-05-27T11:20:12Z</time>
      </trkpt>
      <trkpt lat="44.0423" lon="6.8328">
        <ele>781.6</ele>
        <time>2017-05-27T11:20:19Z</time>
      </trkpt>
      <trkpt lat="44.0423" lon="6.8328">
        <ele>781.6</ele>
        <time>2017-05-27T11:20:21Z</time>
      </trkpt>
      <trkpt lat="44.04234" lon="6.8329">
        <ele>781</ele>
        <time>2017-05-27T11:20:27Z</time>
      </trkpt>
      <trkpt lat="44.04238" lon="6.833">
        <ele>780.6</ele>
        <time>2017-05-27T11:20:34Z</time>
      </trkpt>
      <trkpt lat="44.04242" lon="6.83308">
        <ele>782.3</ele>
        <time>2017-05-27T11:20:41Z</time>
      </trkpt>
      <trkpt lat="44.04249" lon="6.83312">
        <ele>782.6</ele>
        <time>2017-05-27T11:20:48Z</time>
      </trkpt>
      <trkpt lat="44.04255" lon="6.83307">
        <ele>782.7</ele>
        <time>2017-05-27T11:20:55Z</time>
      </trkpt>
      <trkpt lat="44.0426" lon="6.83298">
        <ele>782.9</ele>
        <time>2017-05-27T11:21:02Z</time>
      </trkpt>
      <trkpt lat="44.04266" lon="6.8329">
        <ele>783</ele>
        <time>2017-05-27T11:21:09Z</time>
      </trkpt>
      <trkpt lat="44.04272" lon="6.83285">
        <ele>783</ele>
        <time>2017-05-27T11:21:15Z</time>
      </trkpt>
      <trkpt lat="44.04275" lon="6.83275">
        <ele>783.2</ele>
        <time>2017-05-27T11:21:21Z</time>
      </trkpt>
      <trkpt lat="44.04278" lon="6.83266">
        <ele>783.3</ele>
        <time>2017-05-27T11:21:27Z</time>
      </trkpt>
      <trkpt lat="44.04276" lon="6.83256">
        <ele>783.7</ele>
        <time>2017-05-27T11:21:33Z</time>
      </trkpt>
      <trkpt lat="44.04276" lon="6.83246">
        <ele>784.3</ele>
        <time>2017-05-27T11:21:39Z</time>
      </trkpt>
      <trkpt lat="44.04282" lon="6.83238">
        <ele>784.7</ele>
        <time>2017-05-27T11:21:46Z</time>
      </trkpt>
      <trkpt lat="44.0429" lon="6.83236">
        <ele>785.2</ele>
        <time>2017-05-27T11:21:53Z</time>
      </trkpt>
      <trkpt lat="44.04298" lon="6.83233">
        <ele>785.4</ele>
        <time>2017-05-27T11:22:00Z</time>
      </trkpt>
      <trkpt lat="44.04303" lon="6.83224">
        <ele>786</ele>
        <time>2017-05-27T11:22:07Z</time>
      </trkpt>
      <trkpt lat="44.04307" lon="6.83215">
        <ele>786.4</ele>
        <time>2017-05-27T11:22:13Z</time>
      </trkpt>
      <trkpt lat="44.04313" lon="6.8321">
        <ele>787.3</ele>
        <time>2017-05-27T11:22:20Z</time>
      </trkpt>
      <trkpt lat="44.04321" lon="6.83206">
        <ele>787.3</ele>
        <time>2017-05-27T11:22:27Z</time>
      </trkpt>
      <trkpt lat="44.04326" lon="6.83198">
        <ele>787.4</ele>
        <time>2017-05-27T11:22:33Z</time>
      </trkpt>
      <trkpt lat="44.0433" lon="6.83189">
        <ele>787.5</ele>
        <time>2017-05-27T11:22:39Z</time>
      </trkpt>
      <trkpt lat="44.04334" lon="6.83182">
        <ele>787.5</ele>
        <time>2017-05-27T11:22:46Z</time>
      </trkpt>
      <trkpt lat="44.04338" lon="6.83177">
        <ele>787.6</ele>
        <time>2017-05-27T11:22:53Z</time>
      </trkpt>
      <trkpt lat="44.04343" lon="6.83172">
        <ele>787.2</ele>
        <time>2017-05-27T11:23:00Z</time>
      </trkpt>
      <trkpt lat="44.04347" lon="6.83164">
        <ele>787.7</ele>
        <time>2017-05-27T11:23:07Z</time>
      </trkpt>
      <trkpt lat="44.04348" lon="6.83161">
        <ele>787.7</ele>
        <time>2017-05-27T11:23:14Z</time>
      </trkpt>
      <trkpt lat="44.04348" lon="6.83161">
        <ele>787.7</ele>
        <time>2017-05-27T11:23:16Z</time>
      </trkpt>
      <trkpt lat="44.04354" lon="6.83157">
        <ele>786.7</ele>
        <time>2017-05-27T11:23:29Z</time>
      </trkpt>
      <trkpt lat="44.0436" lon="6.8315">
        <ele>787</ele>
        <time>2017-05-27T11:23:36Z</time>
      </trkpt>
      <trkpt lat="44.04366" lon="6.83145">
        <ele>787</ele>
        <time>2017-05-27T11:23:43Z</time>
      </trkpt>
      <trkpt lat="44.0437" lon="6.83137">
        <ele>787</ele>
        <time>2017-05-27T11:23:50Z</time>
      </trkpt>
      <trkpt lat="44.0437" lon="6.83137">
        <ele>787.4</ele>
        <time>2017-05-27T11:23:57Z</time>
      </trkpt>
      <trkpt lat="44.0437" lon="6.83137">
        <ele>787.4</ele>
        <time>2017-05-27T11:23:58Z</time>
      </trkpt>
      <trkpt lat="44.04372" lon="6.83142">
        <ele>788.7</ele>
        <time>2017-05-27T11:24:13Z</time>
      </trkpt>
      <trkpt lat="44.04373" lon="6.83149">
        <ele>788.4</ele>
        <time>2017-05-27T11:24:20Z</time>
      </trkpt>
      <trkpt lat="44.04379" lon="6.83153">
        <ele>788.2</ele>
        <time>2017-05-27T11:24:27Z</time>
      </trkpt>
      <trkpt lat="44.04382" lon="6.83153">
        <ele>787.5</ele>
        <time>2017-05-27T11:24:34Z</time>
      </trkpt>
      <trkpt lat="44.04383" lon="6.8316">
        <ele>786.7</ele>
        <time>2017-05-27T11:24:41Z</time>
      </trkpt>
      <trkpt lat="44.04381" lon="6.83166">
        <ele>785.8</ele>
        <time>2017-05-27T11:24:48Z</time>
      </trkpt>
      <trkpt lat="44.04387" lon="6.8317">
        <ele>784.5</ele>
        <time>2017-05-27T11:24:55Z</time>
      </trkpt>
      <trkpt lat="44.04391" lon="6.83169">
        <ele>784</ele>
        <time>2017-05-27T11:25:02Z</time>
      </trkpt>
      <trkpt lat="44.04391" lon="6.83174">
        <ele>783.6</ele>
        <time>2017-05-27T11:25:09Z</time>
      </trkpt>
      <trkpt lat="44.0439" lon="6.8318">
        <ele>783.4</ele>
        <time>2017-05-27T11:25:16Z</time>
      </trkpt>
      <trkpt lat="44.04391" lon="6.83186">
        <ele>783.2</ele>
        <time>2017-05-27T11:25:23Z</time>
      </trkpt>
      <trkpt lat="44.04392" lon="6.83194">
        <ele>783</ele>
        <time>2017-05-27T11:25:30Z</time>
      </trkpt>
      <trkpt lat="44.04392" lon="6.83202">
        <ele>783.5</ele>
        <time>2017-05-27T11:25:37Z</time>
      </trkpt>
      <trkpt lat="44.04397" lon="6.83203">
        <ele>784.2</ele>
        <time>2017-05-27T11:25:44Z</time>
      </trkpt>
      <trkpt lat="44.04401" lon="6.83197">
        <ele>784.8</ele>
        <time>2017-05-27T11:25:51Z</time>
      </trkpt>
      <trkpt lat="44.04403" lon="6.8319">
        <ele>785.2</ele>
        <time>2017-05-27T11:25:58Z</time>
      </trkpt>
      <trkpt lat="44.04407" lon="6.83185">
        <ele>785.5</ele>
        <time>2017-05-27T11:26:05Z</time>
      </trkpt>
      <trkpt lat="44.04409" lon="6.8318">
        <ele>785.8</ele>
        <time>2017-05-27T11:26:12Z</time>
      </trkpt>
      <trkpt lat="44.04409" lon="6.83179">
        <ele>786.1</ele>
        <time>2017-05-27T11:26:19Z</time>
      </trkpt>
      <trkpt lat="44.04409" lon="6.83179">
        <ele>786.1</ele>
        <time>2017-05-27T11:26:20Z</time>
      </trkpt>
      <trkpt lat="44.04407" lon="6.83186">
        <ele>786.4</ele>
        <time>2017-05-27T11:26:28Z</time>
      </trkpt>
      <trkpt lat="44.04408" lon="6.83194">
        <ele>786.2</ele>
        <time>2017-05-27T11:26:35Z</time>
      </trkpt>
      <trkpt lat="44.04409" lon="6.83202">
        <ele>785.8</ele>
        <time>2017-05-27T11:26:42Z</time>
      </trkpt>
      <trkpt lat="44.0441" lon="6.83206">
        <ele>785.3</ele>
        <time>2017-05-27T11:26:49Z</time>
      </trkpt>
      <trkpt lat="44.0441" lon="6.83219">
        <ele>784.5</ele>
        <time>2017-05-27T11:26:56Z</time>
      </trkpt>
      <trkpt lat="44.0441" lon="6.83228">
        <ele>783.8</ele>
        <time>2017-05-27T11:27:03Z</time>
      </trkpt>
      <trkpt lat="44.04406" lon="6.83237">
        <ele>783.7</ele>
        <time>2017-05-27T11:27:10Z</time>
      </trkpt>
      <trkpt lat="44.04405" lon="6.8324">
        <ele>783</ele>
        <time>2017-05-27T11:27:17Z</time>
      </trkpt>
      <trkpt lat="44.04405" lon="6.8324">
        <ele>783</ele>
        <time>2017-05-27T11:27:18Z</time>
      </trkpt>
      <trkpt lat="44.04401" lon="6.83248">
        <ele>784</ele>
        <time>2017-05-27T11:27:28Z</time>
      </trkpt>
      <trkpt lat="44.04396" lon="6.83255">
        <ele>785.1</ele>
        <time>2017-05-27T11:27:35Z</time>
      </trkpt>
      <trkpt lat="44.04395" lon="6.83259">
        <ele>786.7</ele>
        <time>2017-05-27T11:27:42Z</time>
      </trkpt>
      <trkpt lat="44.04395" lon="6.83259">
        <ele>786.7</ele>
        <time>2017-05-27T11:27:45Z</time>
      </trkpt>
      <trkpt lat="44.04393" lon="6.83269">
        <ele>790.1</ele>
        <time>2017-05-27T11:27:54Z</time>
      </trkpt>
      <trkpt lat="44.04386" lon="6.83273">
        <ele>791.4</ele>
        <time>2017-05-27T11:28:01Z</time>
      </trkpt>
      <trkpt lat="44.04379" lon="6.83279">
        <ele>793.4</ele>
        <time>2017-05-27T11:28:08Z</time>
      </trkpt>
      <trkpt lat="44.04376" lon="6.83289">
        <ele>795.6</ele>
        <time>2017-05-27T11:28:14Z</time>
      </trkpt>
      <trkpt lat="44.04373" lon="6.83299">
        <ele>797.7</ele>
        <time>2017-05-27T11:28:20Z</time>
      </trkpt>
      <trkpt lat="44.0437" lon="6.83308">
        <ele>799.8</ele>
        <time>2017-05-27T11:28:27Z</time>
      </trkpt>
      <trkpt lat="44.04367" lon="6.83317">
        <ele>801.5</ele>
        <time>2017-05-27T11:28:33Z</time>
      </trkpt>
      <trkpt lat="44.04364" lon="6.83326">
        <ele>803</ele>
        <time>2017-05-27T11:28:40Z</time>
      </trkpt>
      <trkpt lat="44.04364" lon="6.83337">
        <ele>804.6</ele>
        <time>2017-05-27T11:28:47Z</time>
      </trkpt>
      <trkpt lat="44.04366" lon="6.83347">
        <ele>805.9</ele>
        <time>2017-05-27T11:28:54Z</time>
      </trkpt>
      <trkpt lat="44.04366" lon="6.83355">
        <ele>808</ele>
        <time>2017-05-27T11:29:01Z</time>
      </trkpt>
      <trkpt lat="44.04364" lon="6.83363">
        <ele>810.1</ele>
        <time>2017-05-27T11:29:08Z</time>
      </trkpt>
      <trkpt lat="44.04364" lon="6.83374">
        <ele>811.6</ele>
        <time>2017-05-27T11:29:15Z</time>
      </trkpt>
      <trkpt lat="44.04363" lon="6.83382">
        <ele>813.2</ele>
        <time>2017-05-27T11:29:22Z</time>
      </trkpt>
      <trkpt lat="44.04361" lon="6.83389">
        <ele>813.7</ele>
        <time>2017-05-27T11:29:31Z</time>
      </trkpt>
      <trkpt lat="44.04361" lon="6.83389">
        <ele>813.8</ele>
        <time>2017-05-27T11:29:38Z</time>
      </trkpt>
      <trkpt lat="44.04361" lon="6.83389">
        <ele>813.8</ele>
        <time>2017-05-27T11:29:43Z</time>
      </trkpt>
      <trkpt lat="44.04359" lon="6.83396">
        <ele>811.4</ele>
        <time>2017-05-27T11:29:56Z</time>
      </trkpt>
      <trkpt lat="44.04363" lon="6.83405">
        <ele>810.9</ele>
        <time>2017-05-27T11:30:02Z</time>
      </trkpt>
      <trkpt lat="44.04368" lon="6.83411">
        <ele>810.4</ele>
        <time>2017-05-27T11:30:09Z</time>
      </trkpt>
      <trkpt lat="44.04366" lon="6.83416">
        <ele>810.1</ele>
        <time>2017-05-27T11:30:16Z</time>
      </trkpt>
      <trkpt lat="44.04363" lon="6.83421">
        <ele>811.4</ele>
        <time>2017-05-27T11:30:23Z</time>
      </trkpt>
      <trkpt lat="44.0436" lon="6.83422">
        <ele>812.5</ele>
        <time>2017-05-27T11:30:30Z</time>
      </trkpt>
      <trkpt lat="44.0436" lon="6.83423">
        <ele>812.9</ele>
        <time>2017-05-27T11:30:32Z</time>
      </trkpt>
      <trkpt lat="44.04361" lon="6.83432">
        <ele>815.7</ele>
        <time>2017-05-27T11:30:54Z</time>
      </trkpt>
      <trkpt lat="44.04359" lon="6.83437">
        <ele>815.6</ele>
        <time>2017-05-27T11:31:01Z</time>
      </trkpt>
      <trkpt lat="44.04355" lon="6.83447">
        <ele>816</ele>
        <time>2017-05-27T11:31:07Z</time>
      </trkpt>
      <trkpt lat="44.04349" lon="6.8345">
        <ele>816.9</ele>
        <time>2017-05-27T11:31:14Z</time>
      </trkpt>
      <trkpt lat="44.04342" lon="6.83453">
        <ele>818.8</ele>
        <time>2017-05-27T11:31:20Z</time>
      </trkpt>
      <trkpt lat="44.04336" lon="6.83461">
        <ele>821.3</ele>
        <time>2017-05-27T11:31:27Z</time>
      </trkpt>
      <trkpt lat="44.04334" lon="6.83462">
        <ele>821.5</ele>
        <time>2017-05-27T11:31:34Z</time>
      </trkpt>
      <trkpt lat="44.04334" lon="6.83462">
        <ele>821.5</ele>
        <time>2017-05-27T11:31:36Z</time>
      </trkpt>
      <trkpt lat="44.04325" lon="6.83465">
        <ele>840.8</ele>
        <time>2017-05-27T11:32:31Z</time>
      </trkpt>
      <trkpt lat="44.04324" lon="6.83466">
        <ele>844.1</ele>
        <time>2017-05-27T11:32:38Z</time>
      </trkpt>
      <trkpt lat="44.04323" lon="6.83475">
        <ele>846.7</ele>
        <time>2017-05-27T11:32:45Z</time>
      </trkpt>
      <trkpt lat="44.04327" lon="6.83486">
        <ele>848.6</ele>
        <time>2017-05-27T11:32:52Z</time>
      </trkpt>
      <trkpt lat="44.04328" lon="6.83497">
        <ele>849.7</ele>
        <time>2017-05-27T11:32:58Z</time>
      </trkpt>
      <trkpt lat="44.04327" lon="6.83507">
        <ele>851.8</ele>
        <time>2017-05-27T11:33:05Z</time>
      </trkpt>
      <trkpt lat="44.04323" lon="6.83516">
        <ele>854.5</ele>
        <time>2017-05-27T11:33:12Z</time>
      </trkpt>
      <trkpt lat="44.04327" lon="6.83524">
        <ele>857.3</ele>
        <time>2017-05-27T11:33:19Z</time>
      </trkpt>
      <trkpt lat="44.04331" lon="6.83529">
        <ele>861.5</ele>
        <time>2017-05-27T11:33:26Z</time>
      </trkpt>
      <trkpt lat="44.04338" lon="6.83531">
        <ele>863.1</ele>
        <time>2017-05-27T11:33:33Z</time>
      </trkpt>
      <trkpt lat="44.04341" lon="6.83524">
        <ele>864.9</ele>
        <time>2017-05-27T11:33:40Z</time>
      </trkpt>
      <trkpt lat="44.04345" lon="6.83518">
        <ele>866.6</ele>
        <time>2017-05-27T11:33:47Z</time>
      </trkpt>
      <trkpt lat="44.04346" lon="6.83516">
        <ele>866.6</ele>
        <time>2017-05-27T11:33:54Z</time>
      </trkpt>
      <trkpt lat="44.04346" lon="6.83516">
        <ele>866.6</ele>
        <time>2017-05-27T11:33:56Z</time>
      </trkpt>
      <trkpt lat="44.04351" lon="6.83508">
        <ele>866.9</ele>
        <time>2017-05-27T11:34:05Z</time>
      </trkpt>
      <trkpt lat="44.04357" lon="6.83504">
        <ele>867.6</ele>
        <time>2017-05-27T11:34:12Z</time>
      </trkpt>
      <trkpt lat="44.04359" lon="6.8351">
        <ele>868.9</ele>
        <time>2017-05-27T11:34:19Z</time>
      </trkpt>
      <trkpt lat="44.0436" lon="6.8351">
        <ele>869.7</ele>
        <time>2017-05-27T11:34:26Z</time>
      </trkpt>
      <trkpt lat="44.04359" lon="6.83521">
        <ele>870.4</ele>
        <time>2017-05-27T11:34:45Z</time>
      </trkpt>
      <trkpt lat="44.04356" lon="6.83529">
        <ele>870.1</ele>
        <time>2017-05-27T11:34:52Z</time>
      </trkpt>
      <trkpt lat="44.0436" lon="6.83538">
        <ele>869.7</ele>
        <time>2017-05-27T11:34:59Z</time>
      </trkpt>
      <trkpt lat="44.04366" lon="6.83545">
        <ele>869.3</ele>
        <time>2017-05-27T11:35:06Z</time>
      </trkpt>
      <trkpt lat="44.04372" lon="6.83551">
        <ele>869.1</ele>
        <time>2017-05-27T11:35:12Z</time>
      </trkpt>
      <trkpt lat="44.04376" lon="6.8356">
        <ele>868.9</ele>
        <time>2017-05-27T11:35:19Z</time>
      </trkpt>
      <trkpt lat="44.0438" lon="6.83569">
        <ele>868.8</ele>
        <time>2017-05-27T11:35:26Z</time>
      </trkpt>
      <trkpt lat="44.04381" lon="6.8358">
        <ele>869</ele>
        <time>2017-05-27T11:35:33Z</time>
      </trkpt>
      <trkpt lat="44.04377" lon="6.8359">
        <ele>870.7</ele>
        <time>2017-05-27T11:35:40Z</time>
      </trkpt>
      <trkpt lat="44.04376" lon="6.83601">
        <ele>872.5</ele>
        <time>2017-05-27T11:35:46Z</time>
      </trkpt>
      <trkpt lat="44.04377" lon="6.83611">
        <ele>874.9</ele>
        <time>2017-05-27T11:35:53Z</time>
      </trkpt>
      <trkpt lat="44.0438" lon="6.83621">
        <ele>877</ele>
        <time>2017-05-27T11:35:59Z</time>
      </trkpt>
      <trkpt lat="44.04381" lon="6.83632">
        <ele>878.9</ele>
        <time>2017-05-27T11:36:06Z</time>
      </trkpt>
      <trkpt lat="44.04378" lon="6.83641">
        <ele>881.1</ele>
        <time>2017-05-27T11:36:13Z</time>
      </trkpt>
      <trkpt lat="44.04372" lon="6.83643">
        <ele>882.9</ele>
        <time>2017-05-27T11:36:20Z</time>
      </trkpt>
      <trkpt lat="44.04365" lon="6.83644">
        <ele>884.8</ele>
        <time>2017-05-27T11:36:27Z</time>
      </trkpt>
      <trkpt lat="44.04358" lon="6.83646">
        <ele>886.4</ele>
        <time>2017-05-27T11:36:34Z</time>
      </trkpt>
      <trkpt lat="44.04354" lon="6.83654">
        <ele>887.8</ele>
        <time>2017-05-27T11:36:40Z</time>
      </trkpt>
      <trkpt lat="44.04355" lon="6.83666">
        <ele>889.8</ele>
        <time>2017-05-27T11:36:47Z</time>
      </trkpt>
      <trkpt lat="44.04354" lon="6.83675">
        <ele>891.4</ele>
        <time>2017-05-27T11:36:54Z</time>
      </trkpt>
      <trkpt lat="44.04354" lon="6.83683">
        <ele>893.6</ele>
        <time>2017-05-27T11:37:01Z</time>
      </trkpt>
      <trkpt lat="44.04348" lon="6.83687">
        <ele>895.5</ele>
        <time>2017-05-27T11:37:08Z</time>
      </trkpt>
      <trkpt lat="44.04343" lon="6.83692">
        <ele>897.6</ele>
        <time>2017-05-27T11:37:15Z</time>
      </trkpt>
      <trkpt lat="44.04339" lon="6.83699">
        <ele>898.9</ele>
        <time>2017-05-27T11:37:22Z</time>
      </trkpt>
      <trkpt lat="44.04334" lon="6.83705">
        <ele>900.6</ele>
        <time>2017-05-27T11:37:29Z</time>
      </trkpt>
      <trkpt lat="44.04332" lon="6.83714">
        <ele>902.3</ele>
        <time>2017-05-27T11:37:36Z</time>
      </trkpt>
      <trkpt lat="44.04336" lon="6.83719">
        <ele>903</ele>
        <time>2017-05-27T11:37:43Z</time>
      </trkpt>
      <trkpt lat="44.04344" lon="6.83717">
        <ele>903.7</ele>
        <time>2017-05-27T11:37:50Z</time>
      </trkpt>
      <trkpt lat="44.0435" lon="6.83715">
        <ele>905.8</ele>
        <time>2017-05-27T11:37:57Z</time>
      </trkpt>
      <trkpt lat="44.04357" lon="6.83715">
        <ele>907.3</ele>
        <time>2017-05-27T11:38:04Z</time>
      </trkpt>
      <trkpt lat="44.04365" lon="6.83717">
        <ele>909</ele>
        <time>2017-05-27T11:38:11Z</time>
      </trkpt>
      <trkpt lat="44.04373" lon="6.83717">
        <ele>910.1</ele>
        <time>2017-05-27T11:38:18Z</time>
      </trkpt>
      <trkpt lat="44.04381" lon="6.83717">
        <ele>912</ele>
        <time>2017-05-27T11:38:25Z</time>
      </trkpt>
      <trkpt lat="44.04387" lon="6.83721">
        <ele>912.7</ele>
        <time>2017-05-27T11:38:32Z</time>
      </trkpt>
      <trkpt lat="44.04395" lon="6.83722">
        <ele>913.9</ele>
        <time>2017-05-27T11:38:39Z</time>
      </trkpt>
      <trkpt lat="44.04402" lon="6.83721">
        <ele>914.5</ele>
        <time>2017-05-27T11:38:45Z</time>
      </trkpt>
      <trkpt lat="44.0441" lon="6.83719">
        <ele>915.1</ele>
        <time>2017-05-27T11:38:51Z</time>
      </trkpt>
      <trkpt lat="44.04418" lon="6.83718">
        <ele>916.7</ele>
        <time>2017-05-27T11:38:57Z</time>
      </trkpt>
      <trkpt lat="44.04425" lon="6.8372">
        <ele>917.9</ele>
        <time>2017-05-27T11:39:04Z</time>
      </trkpt>
      <trkpt lat="44.04432" lon="6.83723">
        <ele>918.6</ele>
        <time>2017-05-27T11:39:11Z</time>
      </trkpt>
      <trkpt lat="44.04438" lon="6.83726">
        <ele>920.4</ele>
        <time>2017-05-27T11:39:18Z</time>
      </trkpt>
      <trkpt lat="44.04446" lon="6.8373">
        <ele>922.1</ele>
        <time>2017-05-27T11:39:25Z</time>
      </trkpt>
      <trkpt lat="44.04453" lon="6.83732">
        <ele>923.3</ele>
        <time>2017-05-27T11:39:32Z</time>
      </trkpt>
      <trkpt lat="44.0446" lon="6.83737">
        <ele>924.2</ele>
        <time>2017-05-27T11:39:39Z</time>
      </trkpt>
      <trkpt lat="44.04462" lon="6.83737">
        <ele>925.1</ele>
        <time>2017-05-27T11:39:46Z</time>
      </trkpt>
      <trkpt lat="44.04462" lon="6.83737">
        <ele>925.1</ele>
        <time>2017-05-27T11:39:47Z</time>
      </trkpt>
      <trkpt lat="44.0446" lon="6.83734">
        <ele>926.3</ele>
        <time>2017-05-27T11:40:03Z</time>
      </trkpt>
      <trkpt lat="44.04467" lon="6.8374">
        <ele>925.4</ele>
        <time>2017-05-27T11:40:10Z</time>
      </trkpt>
      <trkpt lat="44.04474" lon="6.83739">
        <ele>924.7</ele>
        <time>2017-05-27T11:40:16Z</time>
      </trkpt>
      <trkpt lat="44.04481" lon="6.83736">
        <ele>924.3</ele>
        <time>2017-05-27T11:40:21Z</time>
      </trkpt>
      <trkpt lat="44.04489" lon="6.83732">
        <ele>923.6</ele>
        <time>2017-05-27T11:40:26Z</time>
      </trkpt>
      <trkpt lat="44.04496" lon="6.83729">
        <ele>923.4</ele>
        <time>2017-05-27T11:40:33Z</time>
      </trkpt>
      <trkpt lat="44.04503" lon="6.83732">
        <ele>923.6</ele>
        <time>2017-05-27T11:40:39Z</time>
      </trkpt>
      <trkpt lat="44.04511" lon="6.83734">
        <ele>924</ele>
        <time>2017-05-27T11:40:46Z</time>
      </trkpt>
      <trkpt lat="44.04519" lon="6.83734">
        <ele>925.2</ele>
        <time>2017-05-27T11:40:53Z</time>
      </trkpt>
      <trkpt lat="44.04526" lon="6.83737">
        <ele>927.6</ele>
        <time>2017-05-27T11:41:00Z</time>
      </trkpt>
      <trkpt lat="44.04533" lon="6.83739">
        <ele>929.3</ele>
        <time>2017-05-27T11:41:07Z</time>
      </trkpt>
      <trkpt lat="44.04541" lon="6.83738">
        <ele>930.6</ele>
        <time>2017-05-27T11:41:14Z</time>
      </trkpt>
      <trkpt lat="44.04548" lon="6.8374">
        <ele>931.7</ele>
        <time>2017-05-27T11:41:21Z</time>
      </trkpt>
      <trkpt lat="44.04554" lon="6.8374">
        <ele>932.7</ele>
        <time>2017-05-27T11:41:28Z</time>
      </trkpt>
      <trkpt lat="44.04554" lon="6.8374">
        <ele>933</ele>
        <time>2017-05-27T11:41:35Z</time>
      </trkpt>
      <trkpt lat="44.04561" lon="6.83743">
        <ele>932.1</ele>
        <time>2017-05-27T11:41:49Z</time>
      </trkpt>
      <trkpt lat="44.04569" lon="6.83745">
        <ele>932.3</ele>
        <time>2017-05-27T11:41:56Z</time>
      </trkpt>
      <trkpt lat="44.04577" lon="6.83748">
        <ele>933.3</ele>
        <time>2017-05-27T11:42:03Z</time>
      </trkpt>
      <trkpt lat="44.04583" lon="6.83755">
        <ele>933.5</ele>
        <time>2017-05-27T11:42:09Z</time>
      </trkpt>
      <trkpt lat="44.04586" lon="6.83764">
        <ele>933.4</ele>
        <time>2017-05-27T11:42:14Z</time>
      </trkpt>
      <trkpt lat="44.0459" lon="6.83774">
        <ele>933.8</ele>
        <time>2017-05-27T11:42:20Z</time>
      </trkpt>
      <trkpt lat="44.04595" lon="6.83782">
        <ele>934.1</ele>
        <time>2017-05-27T11:42:27Z</time>
      </trkpt>
      <trkpt lat="44.04602" lon="6.83787">
        <ele>935</ele>
        <time>2017-05-27T11:42:33Z</time>
      </trkpt>
      <trkpt lat="44.04609" lon="6.83791">
        <ele>935.3</ele>
        <time>2017-05-27T11:42:40Z</time>
      </trkpt>
      <trkpt lat="44.04617" lon="6.83796">
        <ele>936.2</ele>
        <time>2017-05-27T11:42:47Z</time>
      </trkpt>
      <trkpt lat="44.04623" lon="6.83804">
        <ele>937.3</ele>
        <time>2017-05-27T11:42:54Z</time>
      </trkpt>
      <trkpt lat="44.04626" lon="6.83812">
        <ele>937.9</ele>
        <time>2017-05-27T11:43:00Z</time>
      </trkpt>
      <trkpt lat="44.04629" lon="6.83823">
        <ele>939.5</ele>
        <time>2017-05-27T11:43:07Z</time>
      </trkpt>
      <trkpt lat="44.04634" lon="6.83831">
        <ele>940.2</ele>
        <time>2017-05-27T11:43:14Z</time>
      </trkpt>
      <trkpt lat="44.04637" lon="6.83841">
        <ele>941.4</ele>
        <time>2017-05-27T11:43:21Z</time>
      </trkpt>
      <trkpt lat="44.04643" lon="6.83848">
        <ele>942</ele>
        <time>2017-05-27T11:43:28Z</time>
      </trkpt>
      <trkpt lat="44.04648" lon="6.83855">
        <ele>942.9</ele>
        <time>2017-05-27T11:43:34Z</time>
      </trkpt>
      <trkpt lat="44.04653" lon="6.83865">
        <ele>943.2</ele>
        <time>2017-05-27T11:43:41Z</time>
      </trkpt>
      <trkpt lat="44.04659" lon="6.83872">
        <ele>943.4</ele>
        <time>2017-05-27T11:43:48Z</time>
      </trkpt>
      <trkpt lat="44.04663" lon="6.83881">
        <ele>944.2</ele>
        <time>2017-05-27T11:43:55Z</time>
      </trkpt>
      <trkpt lat="44.04668" lon="6.8389">
        <ele>944.2</ele>
        <time>2017-05-27T11:44:02Z</time>
      </trkpt>
      <trkpt lat="44.04675" lon="6.83895">
        <ele>944.2</ele>
        <time>2017-05-27T11:44:08Z</time>
      </trkpt>
      <trkpt lat="44.04681" lon="6.839">
        <ele>944.2</ele>
        <time>2017-05-27T11:44:13Z</time>
      </trkpt>
      <trkpt lat="44.04684" lon="6.83911">
        <ele>943.5</ele>
        <time>2017-05-27T11:44:20Z</time>
      </trkpt>
      <trkpt lat="44.04688" lon="6.8392">
        <ele>943.5</ele>
        <time>2017-05-27T11:44:26Z</time>
      </trkpt>
      <trkpt lat="44.0469" lon="6.8393">
        <ele>943.5</ele>
        <time>2017-05-27T11:44:33Z</time>
      </trkpt>
      <trkpt lat="44.04695" lon="6.83939">
        <ele>944.4</ele>
        <time>2017-05-27T11:44:40Z</time>
      </trkpt>
      <trkpt lat="44.04699" lon="6.83949">
        <ele>944.9</ele>
        <time>2017-05-27T11:44:47Z</time>
      </trkpt>
      <trkpt lat="44.04704" lon="6.83956">
        <ele>945.7</ele>
        <time>2017-05-27T11:44:53Z</time>
      </trkpt>
      <trkpt lat="44.04709" lon="6.83965">
        <ele>945.4</ele>
        <time>2017-05-27T11:45:00Z</time>
      </trkpt>
      <trkpt lat="44.04713" lon="6.83975">
        <ele>943.3</ele>
        <time>2017-05-27T11:45:07Z</time>
      </trkpt>
      <trkpt lat="44.04719" lon="6.83982">
        <ele>942.1</ele>
        <time>2017-05-27T11:45:14Z</time>
      </trkpt>
      <trkpt lat="44.04725" lon="6.83989">
        <ele>939.9</ele>
        <time>2017-05-27T11:45:21Z</time>
      </trkpt>
      <trkpt lat="44.04731" lon="6.83994">
        <ele>938.8</ele>
        <time>2017-05-27T11:45:26Z</time>
      </trkpt>
      <trkpt lat="44.04733" lon="6.84005">
        <ele>938.3</ele>
        <time>2017-05-27T11:45:33Z</time>
      </trkpt>
      <trkpt lat="44.04737" lon="6.84006">
        <ele>938.6</ele>
        <time>2017-05-27T11:45:40Z</time>
      </trkpt>
      <trkpt lat="44.04737" lon="6.84006">
        <ele>938.6</ele>
        <time>2017-05-27T11:45:44Z</time>
      </trkpt>
      <trkpt lat="44.04737" lon="6.84017">
        <ele>946.1</ele>
        <time>2017-05-27T11:46:07Z</time>
      </trkpt>
      <trkpt lat="44.04734" lon="6.84027">
        <ele>948.3</ele>
        <time>2017-05-27T11:46:13Z</time>
      </trkpt>
      <trkpt lat="44.04736" lon="6.84037">
        <ele>951.1</ele>
        <time>2017-05-27T11:46:20Z</time>
      </trkpt>
      <trkpt lat="44.0474" lon="6.84038">
        <ele>953.3</ele>
        <time>2017-05-27T11:46:27Z</time>
      </trkpt>
      <trkpt lat="44.04744" lon="6.84041">
        <ele>955.5</ele>
        <time>2017-05-27T11:46:35Z</time>
      </trkpt>
      <trkpt lat="44.04745" lon="6.8404">
        <ele>956.6</ele>
        <time>2017-05-27T11:46:42Z</time>
      </trkpt>
      <trkpt lat="44.04745" lon="6.8404">
        <ele>956.6</ele>
        <time>2017-05-27T11:46:43Z</time>
      </trkpt>
      <trkpt lat="44.0474" lon="6.84039">
        <ele>957.2</ele>
        <time>2017-05-27T11:46:53Z</time>
      </trkpt>
      <trkpt lat="44.0474" lon="6.84036">
        <ele>957.4</ele>
        <time>2017-05-27T11:47:00Z</time>
      </trkpt>
      <trkpt lat="44.0474" lon="6.84036">
        <ele>957.4</ele>
        <time>2017-05-27T11:47:02Z</time>
      </trkpt>
      <trkpt lat="44.04735" lon="6.84043">
        <ele>958.6</ele>
        <time>2017-05-27T11:47:12Z</time>
      </trkpt>
      <trkpt lat="44.04733" lon="6.84048">
        <ele>958</ele>
        <time>2017-05-27T11:47:19Z</time>
      </trkpt>
      <trkpt lat="44.04733" lon="6.84048">
        <ele>958</ele>
        <time>2017-05-27T11:47:22Z</time>
      </trkpt>
      <trkpt lat="44.0473" lon="6.84057">
        <ele>958.4</ele>
        <time>2017-05-27T11:47:56Z</time>
      </trkpt>
      <trkpt lat="44.04728" lon="6.84063">
        <ele>958.5</ele>
        <time>2017-05-27T11:48:03Z</time>
      </trkpt>
      <trkpt lat="44.04724" lon="6.84072">
        <ele>958.6</ele>
        <time>2017-05-27T11:48:10Z</time>
      </trkpt>
      <trkpt lat="44.04721" lon="6.84081">
        <ele>958.6</ele>
        <time>2017-05-27T11:48:16Z</time>
      </trkpt>
      <trkpt lat="44.04716" lon="6.84089">
        <ele>958.9</ele>
        <time>2017-05-27T11:48:23Z</time>
      </trkpt>
      <trkpt lat="44.04709" lon="6.84097">
        <ele>959.2</ele>
        <time>2017-05-27T11:48:29Z</time>
      </trkpt>
      <trkpt lat="44.04702" lon="6.84102">
        <ele>959.6</ele>
        <time>2017-05-27T11:48:35Z</time>
      </trkpt>
      <trkpt lat="44.04695" lon="6.84106">
        <ele>960.4</ele>
        <time>2017-05-27T11:48:42Z</time>
      </trkpt>
      <trkpt lat="44.04688" lon="6.84112">
        <ele>960.6</ele>
        <time>2017-05-27T11:48:48Z</time>
      </trkpt>
      <trkpt lat="44.04682" lon="6.84117">
        <ele>960.3</ele>
        <time>2017-05-27T11:48:54Z</time>
      </trkpt>
      <trkpt lat="44.04675" lon="6.84123">
        <ele>959.7</ele>
        <time>2017-05-27T11:49:00Z</time>
      </trkpt>
      <trkpt lat="44.04667" lon="6.84124">
        <ele>958.4</ele>
        <time>2017-05-27T11:49:06Z</time>
      </trkpt>
      <trkpt lat="44.0466" lon="6.84125">
        <ele>957.4</ele>
        <time>2017-05-27T11:49:12Z</time>
      </trkpt>
      <trkpt lat="44.04652" lon="6.84129">
        <ele>956.7</ele>
        <time>2017-05-27T11:49:18Z</time>
      </trkpt>
      <trkpt lat="44.04646" lon="6.84134">
        <ele>956.1</ele>
        <time>2017-05-27T11:49:24Z</time>
      </trkpt>
      <trkpt lat="44.04639" lon="6.84138">
        <ele>956.1</ele>
        <time>2017-05-27T11:49:30Z</time>
      </trkpt>
      <trkpt lat="44.04633" lon="6.84144">
        <ele>956.2</ele>
        <time>2017-05-27T11:49:36Z</time>
      </trkpt>
      <trkpt lat="44.04626" lon="6.84149">
        <ele>954.5</ele>
        <time>2017-05-27T11:49:43Z</time>
      </trkpt>
      <trkpt lat="44.04619" lon="6.84156">
        <ele>953.8</ele>
        <time>2017-05-27T11:49:50Z</time>
      </trkpt>
      <trkpt lat="44.04615" lon="6.84165">
        <ele>953.2</ele>
        <time>2017-05-27T11:49:56Z</time>
      </trkpt>
      <trkpt lat="44.04613" lon="6.84166">
        <ele>952.5</ele>
        <time>2017-05-27T11:50:03Z</time>
      </trkpt>
      <trkpt lat="44.04613" lon="6.84166">
        <ele>952.5</ele>
        <time>2017-05-27T11:50:07Z</time>
      </trkpt>
      <trkpt lat="44.04607" lon="6.84171">
        <ele>952.4</ele>
        <time>2017-05-27T11:50:30Z</time>
      </trkpt>
      <trkpt lat="44.04601" lon="6.84177">
        <ele>952.2</ele>
        <time>2017-05-27T11:50:37Z</time>
      </trkpt>
      <trkpt lat="44.04594" lon="6.8418">
        <ele>952.4</ele>
        <time>2017-05-27T11:50:44Z</time>
      </trkpt>
      <trkpt lat="44.04588" lon="6.84182">
        <ele>951.8</ele>
        <time>2017-05-27T11:50:51Z</time>
      </trkpt>
      <trkpt lat="44.04583" lon="6.84189">
        <ele>950.4</ele>
        <time>2017-05-27T11:50:58Z</time>
      </trkpt>
      <trkpt lat="44.04578" lon="6.84195">
        <ele>949</ele>
        <time>2017-05-27T11:51:05Z</time>
      </trkpt>
      <trkpt lat="44.04573" lon="6.84196">
        <ele>947.6</ele>
        <time>2017-05-27T11:51:12Z</time>
      </trkpt>
      <trkpt lat="44.04566" lon="6.84201">
        <ele>946.1</ele>
        <time>2017-05-27T11:51:19Z</time>
      </trkpt>
      <trkpt lat="44.04562" lon="6.84209">
        <ele>944.8</ele>
        <time>2017-05-27T11:51:26Z</time>
      </trkpt>
      <trkpt lat="44.0456" lon="6.8422">
        <ele>943.7</ele>
        <time>2017-05-27T11:51:32Z</time>
      </trkpt>
      <trkpt lat="44.04556" lon="6.8423">
        <ele>943</ele>
        <time>2017-05-27T11:51:39Z</time>
      </trkpt>
      <trkpt lat="44.04553" lon="6.8424">
        <ele>943</ele>
        <time>2017-05-27T11:51:45Z</time>
      </trkpt>
      <trkpt lat="44.04552" lon="6.84251">
        <ele>943.2</ele>
        <time>2017-05-27T11:51:51Z</time>
      </trkpt>
      <trkpt lat="44.04549" lon="6.8426">
        <ele>942.9</ele>
        <time>2017-05-27T11:51:57Z</time>
      </trkpt>
      <trkpt lat="44.04545" lon="6.84266">
        <ele>942.4</ele>
        <time>2017-05-27T11:52:04Z</time>
      </trkpt>
      <trkpt lat="44.04539" lon="6.84273">
        <ele>942</ele>
        <time>2017-05-27T11:52:11Z</time>
      </trkpt>
      <trkpt lat="44.04533" lon="6.84277">
        <ele>941.3</ele>
        <time>2017-05-27T11:52:18Z</time>
      </trkpt>
      <trkpt lat="44.04526" lon="6.84276">
        <ele>940.9</ele>
        <time>2017-05-27T11:52:25Z</time>
      </trkpt>
      <trkpt lat="44.04519" lon="6.84279">
        <ele>939.5</ele>
        <time>2017-05-27T11:52:32Z</time>
      </trkpt>
      <trkpt lat="44.04512" lon="6.84284">
        <ele>938.5</ele>
        <time>2017-05-27T11:52:39Z</time>
      </trkpt>
      <trkpt lat="44.04507" lon="6.84293">
        <ele>937.9</ele>
        <time>2017-05-27T11:52:46Z</time>
      </trkpt>
      <trkpt lat="44.04502" lon="6.84299">
        <ele>937.6</ele>
        <time>2017-05-27T11:52:53Z</time>
      </trkpt>
      <trkpt lat="44.045" lon="6.8431">
        <ele>937.1</ele>
        <time>2017-05-27T11:52:59Z</time>
      </trkpt>
      <trkpt lat="44.04498" lon="6.84316">
        <ele>936.9</ele>
        <time>2017-05-27T11:53:06Z</time>
      </trkpt>
      <trkpt lat="44.04497" lon="6.84317">
        <ele>936.2</ele>
        <time>2017-05-27T11:53:13Z</time>
      </trkpt>
      <trkpt lat="44.04491" lon="6.84322">
        <ele>935.8</ele>
        <time>2017-05-27T11:53:20Z</time>
      </trkpt>
      <trkpt lat="44.04489" lon="6.84329">
        <ele>934.7</ele>
        <time>2017-05-27T11:53:27Z</time>
      </trkpt>
      <trkpt lat="44.04485" lon="6.84336">
        <ele>934.1</ele>
        <time>2017-05-27T11:53:34Z</time>
      </trkpt>
      <trkpt lat="44.04484" lon="6.84346">
        <ele>933.6</ele>
        <time>2017-05-27T11:53:41Z</time>
      </trkpt>
      <trkpt lat="44.04482" lon="6.84352">
        <ele>933.5</ele>
        <time>2017-05-27T11:53:48Z</time>
      </trkpt>
      <trkpt lat="44.04479" lon="6.84359">
        <ele>933.4</ele>
        <time>2017-05-27T11:53:55Z</time>
      </trkpt>
      <trkpt lat="44.04476" lon="6.84368">
        <ele>934.5</ele>
        <time>2017-05-27T11:54:02Z</time>
      </trkpt>
      <trkpt lat="44.04477" lon="6.84373">
        <ele>935.8</ele>
        <time>2017-05-27T11:54:09Z</time>
      </trkpt>
      <trkpt lat="44.04478" lon="6.84379">
        <ele>936.4</ele>
        <time>2017-05-27T11:54:16Z</time>
      </trkpt>
      <trkpt lat="44.04483" lon="6.84382">
        <ele>937.1</ele>
        <time>2017-05-27T11:54:23Z</time>
      </trkpt>
      <trkpt lat="44.04485" lon="6.84382">
        <ele>937.4</ele>
        <time>2017-05-27T11:54:30Z</time>
      </trkpt>
      <trkpt lat="44.04485" lon="6.84382">
        <ele>937.4</ele>
        <time>2017-05-27T11:54:35Z</time>
      </trkpt>
      <trkpt lat="44.04482" lon="6.84377">
        <ele>937.5</ele>
        <time>2017-05-27T11:55:09Z</time>
      </trkpt>
      <trkpt lat="44.04481" lon="6.84375">
        <ele>934.4</ele>
        <time>2017-05-27T11:55:16Z</time>
      </trkpt>
      <trkpt lat="44.04481" lon="6.84374">
        <ele>933.4</ele>
        <time>2017-05-27T11:55:23Z</time>
      </trkpt>
      <trkpt lat="44.04484" lon="6.84382">
        <ele>939</ele>
        <time>2017-05-27T11:56:35Z</time>
      </trkpt>
      <trkpt lat="44.04484" lon="6.84382">
        <ele>939</ele>
        <time>2017-05-27T11:56:39Z</time>
      </trkpt>
      <trkpt lat="44.04487" lon="6.84381">
        <ele>939.2</ele>
        <time>2017-05-27T11:57:17Z</time>
      </trkpt>
      <trkpt lat="44.04487" lon="6.84381">
        <ele>939.2</ele>
        <time>2017-05-27T11:57:19Z</time>
      </trkpt>
      <trkpt lat="44.04489" lon="6.84377">
        <ele>939.6</ele>
        <time>2017-05-27T11:57:28Z</time>
      </trkpt>
      <trkpt lat="44.04489" lon="6.84377">
        <ele>939.6</ele>
        <time>2017-05-27T11:57:32Z</time>
      </trkpt>
      <trkpt lat="44.04487" lon="6.84376">
        <ele>940.8</ele>
        <time>2017-05-27T11:57:55Z</time>
      </trkpt>
      <trkpt lat="44.04487" lon="6.84376">
        <ele>940.8</ele>
        <time>2017-05-27T11:57:56Z</time>
      </trkpt>
      <trkpt lat="44.04483" lon="6.84381">
        <ele>942.4</ele>
        <time>2017-05-27T11:58:33Z</time>
      </trkpt>
      <trkpt lat="44.04482" lon="6.84381">
        <ele>942.4</ele>
        <time>2017-05-27T11:58:39Z</time>
      </trkpt>
      <trkpt lat="44.04486" lon="6.84383">
        <ele>939.8</ele>
        <time>2017-05-27T11:59:25Z</time>
      </trkpt>
      <trkpt lat="44.04486" lon="6.84383">
        <ele>939.8</ele>
        <time>2017-05-27T11:59:26Z</time>
      </trkpt>
      <trkpt lat="44.04486" lon="6.84373">
        <ele>942.5</ele>
        <time>2017-05-27T12:00:29Z</time>
      </trkpt>
      <trkpt lat="44.04487" lon="6.84371">
        <ele>942.7</ele>
        <time>2017-05-27T12:00:36Z</time>
      </trkpt>
      <trkpt lat="44.04479" lon="6.84371">
        <ele>943.1</ele>
        <time>2017-05-27T12:00:45Z</time>
      </trkpt>
      <trkpt lat="44.04478" lon="6.84371">
        <ele>943.2</ele>
        <time>2017-05-27T12:00:52Z</time>
      </trkpt>
      <trkpt lat="44.04478" lon="6.84371">
        <ele>943.2</ele>
        <time>2017-05-27T12:00:54Z</time>
      </trkpt>
      <trkpt lat="44.0448" lon="6.84368">
        <ele>939.1</ele>
        <time>2017-05-27T12:01:57Z</time>
      </trkpt>
      <trkpt lat="44.04479" lon="6.84364">
        <ele>939.7</ele>
        <time>2017-05-27T12:02:04Z</time>
      </trkpt>
      <trkpt lat="44.0448" lon="6.84358">
        <ele>939.7</ele>
        <time>2017-05-27T12:02:11Z</time>
      </trkpt>
      <trkpt lat="44.04484" lon="6.84351">
        <ele>939.3</ele>
        <time>2017-05-27T12:02:18Z</time>
      </trkpt>
      <trkpt lat="44.04487" lon="6.84342">
        <ele>939.1</ele>
        <time>2017-05-27T12:02:25Z</time>
      </trkpt>
      <trkpt lat="44.04489" lon="6.84333">
        <ele>938.4</ele>
        <time>2017-05-27T12:02:32Z</time>
      </trkpt>
      <trkpt lat="44.04492" lon="6.84328">
        <ele>937.4</ele>
        <time>2017-05-27T12:02:39Z</time>
      </trkpt>
      <trkpt lat="44.04492" lon="6.84322">
        <ele>936.5</ele>
        <time>2017-05-27T12:02:46Z</time>
      </trkpt>
      <trkpt lat="44.04497" lon="6.84319">
        <ele>935.6</ele>
        <time>2017-05-27T12:02:53Z</time>
      </trkpt>
      <trkpt lat="44.045" lon="6.8431">
        <ele>934.6</ele>
        <time>2017-05-27T12:02:59Z</time>
      </trkpt>
      <trkpt lat="44.04501" lon="6.84299">
        <ele>933.7</ele>
        <time>2017-05-27T12:03:05Z</time>
      </trkpt>
      <trkpt lat="44.04505" lon="6.84295">
        <ele>933.6</ele>
        <time>2017-05-27T12:03:12Z</time>
      </trkpt>
      <trkpt lat="44.0451" lon="6.84287">
        <ele>933.5</ele>
        <time>2017-05-27T12:03:19Z</time>
      </trkpt>
      <trkpt lat="44.04515" lon="6.84282">
        <ele>933.6</ele>
        <time>2017-05-27T12:03:26Z</time>
      </trkpt>
      <trkpt lat="44.04521" lon="6.84277">
        <ele>933.5</ele>
        <time>2017-05-27T12:03:33Z</time>
      </trkpt>
      <trkpt lat="44.04528" lon="6.84277">
        <ele>933.4</ele>
        <time>2017-05-27T12:03:40Z</time>
      </trkpt>
      <trkpt lat="44.04535" lon="6.84273">
        <ele>933.4</ele>
        <time>2017-05-27T12:03:47Z</time>
      </trkpt>
      <trkpt lat="44.04541" lon="6.84266">
        <ele>933.5</ele>
        <time>2017-05-27T12:03:54Z</time>
      </trkpt>
      <trkpt lat="44.04548" lon="6.8426">
        <ele>934.4</ele>
        <time>2017-05-27T12:04:01Z</time>
      </trkpt>
      <trkpt lat="44.04551" lon="6.84251">
        <ele>935.5</ele>
        <time>2017-05-27T12:04:07Z</time>
      </trkpt>
      <trkpt lat="44.04553" lon="6.84241">
        <ele>936.5</ele>
        <time>2017-05-27T12:04:14Z</time>
      </trkpt>
      <trkpt lat="44.04556" lon="6.84231">
        <ele>936.7</ele>
        <time>2017-05-27T12:04:21Z</time>
      </trkpt>
      <trkpt lat="44.04559" lon="6.8422">
        <ele>936.6</ele>
        <time>2017-05-27T12:04:28Z</time>
      </trkpt>
      <trkpt lat="44.04561" lon="6.84209">
        <ele>936.8</ele>
        <time>2017-05-27T12:04:35Z</time>
      </trkpt>
      <trkpt lat="44.04565" lon="6.84201">
        <ele>937.7</ele>
        <time>2017-05-27T12:04:42Z</time>
      </trkpt>
      <trkpt lat="44.04572" lon="6.84197">
        <ele>938.4</ele>
        <time>2017-05-27T12:04:49Z</time>
      </trkpt>
      <trkpt lat="44.04578" lon="6.84193">
        <ele>939.5</ele>
        <time>2017-05-27T12:04:56Z</time>
      </trkpt>
      <trkpt lat="44.04583" lon="6.84186">
        <ele>940</ele>
        <time>2017-05-27T12:05:03Z</time>
      </trkpt>
      <trkpt lat="44.04588" lon="6.84182">
        <ele>941</ele>
        <time>2017-05-27T12:05:10Z</time>
      </trkpt>
      <trkpt lat="44.04596" lon="6.8418">
        <ele>942</ele>
        <time>2017-05-27T12:05:17Z</time>
      </trkpt>
      <trkpt lat="44.04603" lon="6.84177">
        <ele>943.1</ele>
        <time>2017-05-27T12:05:24Z</time>
      </trkpt>
      <trkpt lat="44.04609" lon="6.8417">
        <ele>944.3</ele>
        <time>2017-05-27T12:05:31Z</time>
      </trkpt>
      <trkpt lat="44.04614" lon="6.84162">
        <ele>945.9</ele>
        <time>2017-05-27T12:05:38Z</time>
      </trkpt>
      <trkpt lat="44.04619" lon="6.84154">
        <ele>948</ele>
        <time>2017-05-27T12:05:45Z</time>
      </trkpt>
      <trkpt lat="44.04624" lon="6.8415">
        <ele>949.3</ele>
        <time>2017-05-27T12:05:52Z</time>
      </trkpt>
      <trkpt lat="44.04629" lon="6.84147">
        <ele>950.8</ele>
        <time>2017-05-27T12:05:59Z</time>
      </trkpt>
      <trkpt lat="44.0463" lon="6.84146">
        <ele>950.7</ele>
        <time>2017-05-27T12:06:06Z</time>
      </trkpt>
      <trkpt lat="44.0463" lon="6.84146">
        <ele>950.7</ele>
        <time>2017-05-27T12:06:07Z</time>
      </trkpt>
      <trkpt lat="44.04638" lon="6.84142">
        <ele>949.2</ele>
        <time>2017-05-27T12:06:20Z</time>
      </trkpt>
      <trkpt lat="44.04643" lon="6.84136">
        <ele>947.4</ele>
        <time>2017-05-27T12:06:27Z</time>
      </trkpt>
      <trkpt lat="44.04651" lon="6.84132">
        <ele>945.5</ele>
        <time>2017-05-27T12:06:34Z</time>
      </trkpt>
      <trkpt lat="44.04658" lon="6.84127">
        <ele>944.5</ele>
        <time>2017-05-27T12:06:41Z</time>
      </trkpt>
      <trkpt lat="44.04666" lon="6.84125">
        <ele>943.9</ele>
        <time>2017-05-27T12:06:47Z</time>
      </trkpt>
      <trkpt lat="44.04674" lon="6.84123">
        <ele>945.4</ele>
        <time>2017-05-27T12:06:53Z</time>
      </trkpt>
      <trkpt lat="44.04679" lon="6.84117">
        <ele>945.7</ele>
        <time>2017-05-27T12:06:59Z</time>
      </trkpt>
      <trkpt lat="44.04686" lon="6.84112">
        <ele>946.9</ele>
        <time>2017-05-27T12:07:06Z</time>
      </trkpt>
      <trkpt lat="44.04693" lon="6.84105">
        <ele>948.7</ele>
        <time>2017-05-27T12:07:13Z</time>
      </trkpt>
      <trkpt lat="44.04701" lon="6.84102">
        <ele>950.8</ele>
        <time>2017-05-27T12:07:20Z</time>
      </trkpt>
      <trkpt lat="44.04708" lon="6.84098">
        <ele>952.6</ele>
        <time>2017-05-27T12:07:26Z</time>
      </trkpt>
      <trkpt lat="44.04714" lon="6.84092">
        <ele>954.1</ele>
        <time>2017-05-27T12:07:32Z</time>
      </trkpt>
      <trkpt lat="44.04719" lon="6.84084">
        <ele>955.9</ele>
        <time>2017-05-27T12:07:39Z</time>
      </trkpt>
      <trkpt lat="44.04724" lon="6.84075">
        <ele>957.6</ele>
        <time>2017-05-27T12:07:46Z</time>
      </trkpt>
      <trkpt lat="44.04729" lon="6.84066">
        <ele>958.8</ele>
        <time>2017-05-27T12:07:53Z</time>
      </trkpt>
      <trkpt lat="44.04733" lon="6.84058">
        <ele>960.3</ele>
        <time>2017-05-27T12:08:00Z</time>
      </trkpt>
      <trkpt lat="44.04735" lon="6.84052">
        <ele>961.7</ele>
        <time>2017-05-27T12:08:07Z</time>
      </trkpt>
      <trkpt lat="44.04739" lon="6.84045">
        <ele>963.6</ele>
        <time>2017-05-27T12:08:14Z</time>
      </trkpt>
      <trkpt lat="44.0474" lon="6.84039">
        <ele>965.2</ele>
        <time>2017-05-27T12:08:21Z</time>
      </trkpt>
      <trkpt lat="44.04741" lon="6.84038">
        <ele>965.6</ele>
        <time>2017-05-27T12:08:26Z</time>
      </trkpt>
      <trkpt lat="44.04744" lon="6.84029">
        <ele>966.9</ele>
        <time>2017-05-27T12:08:43Z</time>
      </trkpt>
      <trkpt lat="44.04744" lon="6.84021">
        <ele>965.1</ele>
        <time>2017-05-27T12:08:50Z</time>
      </trkpt>
      <trkpt lat="44.04746" lon="6.84014">
        <ele>964</ele>
        <time>2017-05-27T12:08:57Z</time>
      </trkpt>
      <trkpt lat="44.04746" lon="6.84003">
        <ele>962.9</ele>
        <time>2017-05-27T12:09:04Z</time>
      </trkpt>
      <trkpt lat="44.04742" lon="6.83994">
        <ele>962.3</ele>
        <time>2017-05-27T12:09:10Z</time>
      </trkpt>
      <trkpt lat="44.04735" lon="6.83988">
        <ele>961.8</ele>
        <time>2017-05-27T12:09:17Z</time>
      </trkpt>
      <trkpt lat="44.04729" lon="6.83981">
        <ele>960.6</ele>
        <time>2017-05-27T12:09:24Z</time>
      </trkpt>
      <trkpt lat="44.04724" lon="6.83972">
        <ele>959.9</ele>
        <time>2017-05-27T12:09:31Z</time>
      </trkpt>
      <trkpt lat="44.04717" lon="6.83965">
        <ele>958.8</ele>
        <time>2017-05-27T12:09:38Z</time>
      </trkpt>
      <trkpt lat="44.04712" lon="6.83958">
        <ele>958.1</ele>
        <time>2017-05-27T12:09:44Z</time>
      </trkpt>
      <trkpt lat="44.04708" lon="6.83951">
        <ele>957.7</ele>
        <time>2017-05-27T12:09:50Z</time>
      </trkpt>
      <trkpt lat="44.04702" lon="6.83943">
        <ele>956.8</ele>
        <time>2017-05-27T12:09:56Z</time>
      </trkpt>
      <trkpt lat="44.04698" lon="6.83935">
        <ele>955.9</ele>
        <time>2017-05-27T12:10:02Z</time>
      </trkpt>
      <trkpt lat="44.04692" lon="6.83927">
        <ele>955.3</ele>
        <time>2017-05-27T12:10:08Z</time>
      </trkpt>
      <trkpt lat="44.04688" lon="6.83918">
        <ele>953.9</ele>
        <time>2017-05-27T12:10:15Z</time>
      </trkpt>
      <trkpt lat="44.04686" lon="6.83907">
        <ele>953.2</ele>
        <time>2017-05-27T12:10:22Z</time>
      </trkpt>
      <trkpt lat="44.04686" lon="6.83897">
        <ele>952.3</ele>
        <time>2017-05-27T12:10:29Z</time>
      </trkpt>
      <trkpt lat="44.04679" lon="6.83891">
        <ele>951.6</ele>
        <time>2017-05-27T12:10:35Z</time>
      </trkpt>
      <trkpt lat="44.04674" lon="6.83884">
        <ele>950.5</ele>
        <time>2017-05-27T12:10:42Z</time>
      </trkpt>
      <trkpt lat="44.04668" lon="6.83876">
        <ele>950.2</ele>
        <time>2017-05-27T12:10:49Z</time>
      </trkpt>
      <trkpt lat="44.04663" lon="6.83869">
        <ele>950</ele>
        <time>2017-05-27T12:10:55Z</time>
      </trkpt>
      <trkpt lat="44.04657" lon="6.83862">
        <ele>949.4</ele>
        <time>2017-05-27T12:11:02Z</time>
      </trkpt>
      <trkpt lat="44.04653" lon="6.83853">
        <ele>948.8</ele>
        <time>2017-05-27T12:11:08Z</time>
      </trkpt>
      <trkpt lat="44.04648" lon="6.83844">
        <ele>948.6</ele>
        <time>2017-05-27T12:11:14Z</time>
      </trkpt>
      <trkpt lat="44.04642" lon="6.83837">
        <ele>948</ele>
        <time>2017-05-27T12:11:20Z</time>
      </trkpt>
      <trkpt lat="44.04638" lon="6.83828">
        <ele>946.4</ele>
        <time>2017-05-27T12:11:26Z</time>
      </trkpt>
      <trkpt lat="44.04635" lon="6.83819">
        <ele>943.5</ele>
        <time>2017-05-27T12:11:32Z</time>
      </trkpt>
      <trkpt lat="44.04634" lon="6.83807">
        <ele>940.8</ele>
        <time>2017-05-27T12:11:39Z</time>
      </trkpt>
      <trkpt lat="44.0463" lon="6.83797">
        <ele>939.4</ele>
        <time>2017-05-27T12:11:45Z</time>
      </trkpt>
      <trkpt lat="44.04623" lon="6.83791">
        <ele>938.1</ele>
        <time>2017-05-27T12:11:50Z</time>
      </trkpt>
      <trkpt lat="44.04616" lon="6.83787">
        <ele>937.3</ele>
        <time>2017-05-27T12:11:56Z</time>
      </trkpt>
      <trkpt lat="44.04609" lon="6.83782">
        <ele>935.6</ele>
        <time>2017-05-27T12:12:02Z</time>
      </trkpt>
      <trkpt lat="44.04602" lon="6.83779">
        <ele>934.1</ele>
        <time>2017-05-27T12:12:08Z</time>
      </trkpt>
      <trkpt lat="44.04595" lon="6.83776">
        <ele>932.9</ele>
        <time>2017-05-27T12:12:14Z</time>
      </trkpt>
      <trkpt lat="44.04592" lon="6.83776">
        <ele>932</ele>
        <time>2017-05-27T12:12:21Z</time>
      </trkpt>
      <trkpt lat="44.04592" lon="6.83776">
        <ele>932</ele>
        <time>2017-05-27T12:12:25Z</time>
      </trkpt>
      <trkpt lat="44.0459" lon="6.83767">
        <ele>932.4</ele>
        <time>2017-05-27T12:12:30Z</time>
      </trkpt>
      <trkpt lat="44.04588" lon="6.83755">
        <ele>932.8</ele>
        <time>2017-05-27T12:12:36Z</time>
      </trkpt>
      <trkpt lat="44.04583" lon="6.83747">
        <ele>933.6</ele>
        <time>2017-05-27T12:12:42Z</time>
      </trkpt>
      <trkpt lat="44.04577" lon="6.83745">
        <ele>934.4</ele>
        <time>2017-05-27T12:12:49Z</time>
      </trkpt>
      <trkpt lat="44.04569" lon="6.83742">
        <ele>935.1</ele>
        <time>2017-05-27T12:12:55Z</time>
      </trkpt>
      <trkpt lat="44.04562" lon="6.83739">
        <ele>936.1</ele>
        <time>2017-05-27T12:13:02Z</time>
      </trkpt>
      <trkpt lat="44.04553" lon="6.83739">
        <ele>937</ele>
        <time>2017-05-27T12:13:08Z</time>
      </trkpt>
      <trkpt lat="44.04546" lon="6.83737">
        <ele>937.7</ele>
        <time>2017-05-27T12:13:14Z</time>
      </trkpt>
      <trkpt lat="44.04538" lon="6.83739">
        <ele>937.8</ele>
        <time>2017-05-27T12:13:20Z</time>
      </trkpt>
      <trkpt lat="44.0453" lon="6.83738">
        <ele>937.5</ele>
        <time>2017-05-27T12:13:26Z</time>
      </trkpt>
      <trkpt lat="44.04522" lon="6.83736">
        <ele>937.2</ele>
        <time>2017-05-27T12:13:32Z</time>
      </trkpt>
      <trkpt lat="44.04514" lon="6.83734">
        <ele>936.1</ele>
        <time>2017-05-27T12:13:38Z</time>
      </trkpt>
      <trkpt lat="44.04507" lon="6.83734">
        <ele>935.4</ele>
        <time>2017-05-27T12:13:44Z</time>
      </trkpt>
      <trkpt lat="44.04499" lon="6.83729">
        <ele>934.2</ele>
        <time>2017-05-27T12:13:50Z</time>
      </trkpt>
      <trkpt lat="44.04491" lon="6.8373">
        <ele>933.8</ele>
        <time>2017-05-27T12:13:56Z</time>
      </trkpt>
      <trkpt lat="44.04484" lon="6.83733">
        <ele>933.7</ele>
        <time>2017-05-27T12:14:02Z</time>
      </trkpt>
      <trkpt lat="44.04476" lon="6.83736">
        <ele>932.7</ele>
        <time>2017-05-27T12:14:08Z</time>
      </trkpt>
      <trkpt lat="44.04469" lon="6.83738">
        <ele>932.5</ele>
        <time>2017-05-27T12:14:14Z</time>
      </trkpt>
      <trkpt lat="44.0446" lon="6.83736">
        <ele>932.5</ele>
        <time>2017-05-27T12:14:21Z</time>
      </trkpt>
      <trkpt lat="44.04455" lon="6.83729">
        <ele>931.8</ele>
        <time>2017-05-27T12:14:27Z</time>
      </trkpt>
      <trkpt lat="44.04448" lon="6.83727">
        <ele>931.1</ele>
        <time>2017-05-27T12:14:33Z</time>
      </trkpt>
      <trkpt lat="44.04441" lon="6.83723">
        <ele>930.3</ele>
        <time>2017-05-27T12:14:40Z</time>
      </trkpt>
      <trkpt lat="44.04433" lon="6.83722">
        <ele>929.9</ele>
        <time>2017-05-27T12:14:47Z</time>
      </trkpt>
      <trkpt lat="44.04425" lon="6.83721">
        <ele>928.4</ele>
        <time>2017-05-27T12:14:53Z</time>
      </trkpt>
      <trkpt lat="44.04417" lon="6.83719">
        <ele>927.1</ele>
        <time>2017-05-27T12:14:59Z</time>
      </trkpt>
      <trkpt lat="44.04409" lon="6.83719">
        <ele>925.5</ele>
        <time>2017-05-27T12:15:06Z</time>
      </trkpt>
      <trkpt lat="44.04401" lon="6.83722">
        <ele>924.2</ele>
        <time>2017-05-27T12:15:13Z</time>
      </trkpt>
      <trkpt lat="44.04393" lon="6.83721">
        <ele>923.1</ele>
        <time>2017-05-27T12:15:20Z</time>
      </trkpt>
      <trkpt lat="44.04386" lon="6.83718">
        <ele>922.6</ele>
        <time>2017-05-27T12:15:26Z</time>
      </trkpt>
      <trkpt lat="44.04377" lon="6.83717">
        <ele>921.4</ele>
        <time>2017-05-27T12:15:32Z</time>
      </trkpt>
      <trkpt lat="44.0437" lon="6.83716">
        <ele>920.1</ele>
        <time>2017-05-27T12:15:38Z</time>
      </trkpt>
      <trkpt lat="44.04362" lon="6.83714">
        <ele>919</ele>
        <time>2017-05-27T12:15:44Z</time>
      </trkpt>
      <trkpt lat="44.04354" lon="6.83712">
        <ele>917.7</ele>
        <time>2017-05-27T12:15:50Z</time>
      </trkpt>
      <trkpt lat="44.04346" lon="6.83712">
        <ele>917</ele>
        <time>2017-05-27T12:15:56Z</time>
      </trkpt>
      <trkpt lat="44.04339" lon="6.83715">
        <ele>915.4</ele>
        <time>2017-05-27T12:16:03Z</time>
      </trkpt>
      <trkpt lat="44.04334" lon="6.8371">
        <ele>914.3</ele>
        <time>2017-05-27T12:16:10Z</time>
      </trkpt>
      <trkpt lat="44.04339" lon="6.83701">
        <ele>912.7</ele>
        <time>2017-05-27T12:16:17Z</time>
      </trkpt>
      <trkpt lat="44.04345" lon="6.83695">
        <ele>911.3</ele>
        <time>2017-05-27T12:16:24Z</time>
      </trkpt>
      <trkpt lat="44.0435" lon="6.83688">
        <ele>909.5</ele>
        <time>2017-05-27T12:16:31Z</time>
      </trkpt>
      <trkpt lat="44.04355" lon="6.83682">
        <ele>907</ele>
        <time>2017-05-27T12:16:38Z</time>
      </trkpt>
      <trkpt lat="44.04359" lon="6.83674">
        <ele>904.6</ele>
        <time>2017-05-27T12:16:45Z</time>
      </trkpt>
      <trkpt lat="44.04358" lon="6.83663">
        <ele>903.1</ele>
        <time>2017-05-27T12:16:51Z</time>
      </trkpt>
      <trkpt lat="44.04356" lon="6.83653">
        <ele>901.2</ele>
        <time>2017-05-27T12:16:58Z</time>
      </trkpt>
      <trkpt lat="44.0436" lon="6.83646">
        <ele>897.1</ele>
        <time>2017-05-27T12:17:05Z</time>
      </trkpt>
      <trkpt lat="44.04367" lon="6.83644">
        <ele>892.8</ele>
        <time>2017-05-27T12:17:12Z</time>
      </trkpt>
      <trkpt lat="44.04375" lon="6.83644">
        <ele>888.3</ele>
        <time>2017-05-27T12:17:19Z</time>
      </trkpt>
      <trkpt lat="44.04381" lon="6.83637">
        <ele>885.6</ele>
        <time>2017-05-27T12:17:26Z</time>
      </trkpt>
      <trkpt lat="44.04383" lon="6.83627">
        <ele>885.9</ele>
        <time>2017-05-27T12:17:31Z</time>
      </trkpt>
      <trkpt lat="44.04382" lon="6.83617">
        <ele>886.5</ele>
        <time>2017-05-27T12:17:36Z</time>
      </trkpt>
      <trkpt lat="44.0438" lon="6.83606">
        <ele>886.7</ele>
        <time>2017-05-27T12:17:41Z</time>
      </trkpt>
      <trkpt lat="44.04379" lon="6.83596">
        <ele>887.1</ele>
        <time>2017-05-27T12:17:47Z</time>
      </trkpt>
      <trkpt lat="44.0438" lon="6.83585">
        <ele>887.9</ele>
        <time>2017-05-27T12:17:54Z</time>
      </trkpt>
      <trkpt lat="44.04383" lon="6.83575">
        <ele>888.2</ele>
        <time>2017-05-27T12:18:00Z</time>
      </trkpt>
      <trkpt lat="44.04383" lon="6.83564">
        <ele>888.7</ele>
        <time>2017-05-27T12:18:07Z</time>
      </trkpt>
      <trkpt lat="44.04381" lon="6.83554">
        <ele>888.4</ele>
        <time>2017-05-27T12:18:13Z</time>
      </trkpt>
      <trkpt lat="44.04377" lon="6.83545">
        <ele>888.4</ele>
        <time>2017-05-27T12:18:19Z</time>
      </trkpt>
      <trkpt lat="44.04371" lon="6.83539">
        <ele>888.2</ele>
        <time>2017-05-27T12:18:25Z</time>
      </trkpt>
      <trkpt lat="44.0437" lon="6.83538">
        <ele>888.4</ele>
        <time>2017-05-27T12:18:32Z</time>
      </trkpt>
      <trkpt lat="44.04364" lon="6.8353">
        <ele>888.3</ele>
        <time>2017-05-27T12:18:39Z</time>
      </trkpt>
      <trkpt lat="44.04363" lon="6.8352">
        <ele>887.9</ele>
        <time>2017-05-27T12:18:45Z</time>
      </trkpt>
      <trkpt lat="44.04361" lon="6.83509">
        <ele>886.7</ele>
        <time>2017-05-27T12:18:52Z</time>
      </trkpt>
      <trkpt lat="44.04359" lon="6.83501">
        <ele>885.1</ele>
        <time>2017-05-27T12:18:59Z</time>
      </trkpt>
      <trkpt lat="44.04352" lon="6.83507">
        <ele>881.4</ele>
        <time>2017-05-27T12:19:05Z</time>
      </trkpt>
      <trkpt lat="44.04349" lon="6.83515">
        <ele>878.7</ele>
        <time>2017-05-27T12:19:11Z</time>
      </trkpt>
      <trkpt lat="44.04345" lon="6.83524">
        <ele>875.9</ele>
        <time>2017-05-27T12:19:18Z</time>
      </trkpt>
      <trkpt lat="44.04343" lon="6.83531">
        <ele>873.5</ele>
        <time>2017-05-27T12:19:25Z</time>
      </trkpt>
      <trkpt lat="44.04337" lon="6.83529">
        <ele>872.2</ele>
        <time>2017-05-27T12:19:32Z</time>
      </trkpt>
      <trkpt lat="44.04332" lon="6.83522">
        <ele>871.7</ele>
        <time>2017-05-27T12:19:38Z</time>
      </trkpt>
      <trkpt lat="44.04329" lon="6.83513">
        <ele>869.8</ele>
        <time>2017-05-27T12:19:45Z</time>
      </trkpt>
      <trkpt lat="44.04332" lon="6.83503">
        <ele>868.1</ele>
        <time>2017-05-27T12:19:52Z</time>
      </trkpt>
      <trkpt lat="44.04333" lon="6.83493">
        <ele>866</ele>
        <time>2017-05-27T12:19:58Z</time>
      </trkpt>
      <trkpt lat="44.04332" lon="6.83483">
        <ele>864.4</ele>
        <time>2017-05-27T12:20:04Z</time>
      </trkpt>
      <trkpt lat="44.0433" lon="6.83472">
        <ele>863.7</ele>
        <time>2017-05-27T12:20:10Z</time>
      </trkpt>
      <trkpt lat="44.04331" lon="6.83465">
        <ele>863.2</ele>
        <time>2017-05-27T12:20:17Z</time>
      </trkpt>
      <trkpt lat="44.04331" lon="6.83464">
        <ele>863.2</ele>
        <time>2017-05-27T12:20:24Z</time>
      </trkpt>
      <trkpt lat="44.04331" lon="6.83464">
        <ele>863.2</ele>
        <time>2017-05-27T12:20:26Z</time>
      </trkpt>
      <trkpt lat="44.04336" lon="6.83459">
        <ele>861.5</ele>
        <time>2017-05-27T12:21:11Z</time>
      </trkpt>
      <trkpt lat="44.04343" lon="6.83453">
        <ele>861.3</ele>
        <time>2017-05-27T12:21:18Z</time>
      </trkpt>
      <trkpt lat="44.0435" lon="6.83451">
        <ele>860.8</ele>
        <time>2017-05-27T12:21:25Z</time>
      </trkpt>
      <trkpt lat="44.04354" lon="6.83443">
        <ele>860.5</ele>
        <time>2017-05-27T12:21:32Z</time>
      </trkpt>
      <trkpt lat="44.04358" lon="6.83434">
        <ele>859.2</ele>
        <time>2017-05-27T12:21:38Z</time>
      </trkpt>
      <trkpt lat="44.04361" lon="6.83424">
        <ele>857</ele>
        <time>2017-05-27T12:21:45Z</time>
      </trkpt>
      <trkpt lat="44.04364" lon="6.83415">
        <ele>855.3</ele>
        <time>2017-05-27T12:21:52Z</time>
      </trkpt>
      <trkpt lat="44.04361" lon="6.83405">
        <ele>854.2</ele>
        <time>2017-05-27T12:21:59Z</time>
      </trkpt>
      <trkpt lat="44.04356" lon="6.83396">
        <ele>852.4</ele>
        <time>2017-05-27T12:22:06Z</time>
      </trkpt>
      <trkpt lat="44.04356" lon="6.83386">
        <ele>847.5</ele>
        <time>2017-05-27T12:22:12Z</time>
      </trkpt>
      <trkpt lat="44.04359" lon="6.8338">
        <ele>844.4</ele>
        <time>2017-05-27T12:22:19Z</time>
      </trkpt>
      <trkpt lat="44.0436" lon="6.8337">
        <ele>842.9</ele>
        <time>2017-05-27T12:22:25Z</time>
      </trkpt>
      <trkpt lat="44.0436" lon="6.83358">
        <ele>841</ele>
        <time>2017-05-27T12:22:32Z</time>
      </trkpt>
      <trkpt lat="44.0436" lon="6.83348">
        <ele>839.2</ele>
        <time>2017-05-27T12:22:39Z</time>
      </trkpt>
      <trkpt lat="44.04357" lon="6.83339">
        <ele>837.4</ele>
        <time>2017-05-27T12:22:46Z</time>
      </trkpt>
      <trkpt lat="44.04357" lon="6.83329">
        <ele>836.3</ele>
        <time>2017-05-27T12:22:53Z</time>
      </trkpt>
      <trkpt lat="44.04359" lon="6.83326">
        <ele>837.1</ele>
        <time>2017-05-27T12:23:00Z</time>
      </trkpt>
      <trkpt lat="44.04362" lon="6.83317">
        <ele>837.2</ele>
        <time>2017-05-27T12:23:06Z</time>
      </trkpt>
      <trkpt lat="44.04365" lon="6.83307">
        <ele>837.7</ele>
        <time>2017-05-27T12:23:13Z</time>
      </trkpt>
      <trkpt lat="44.04369" lon="6.83297">
        <ele>837.2</ele>
        <time>2017-05-27T12:23:20Z</time>
      </trkpt>
      <trkpt lat="44.04372" lon="6.83286">
        <ele>836.3</ele>
        <time>2017-05-27T12:23:27Z</time>
      </trkpt>
      <trkpt lat="44.04377" lon="6.83278">
        <ele>835.5</ele>
        <time>2017-05-27T12:23:34Z</time>
      </trkpt>
      <trkpt lat="44.04384" lon="6.83273">
        <ele>834.5</ele>
        <time>2017-05-27T12:23:40Z</time>
      </trkpt>
      <trkpt lat="44.04388" lon="6.83265">
        <ele>833.8</ele>
        <time>2017-05-27T12:23:46Z</time>
      </trkpt>
      <trkpt lat="44.04391" lon="6.83254">
        <ele>832.9</ele>
        <time>2017-05-27T12:23:53Z</time>
      </trkpt>
      <trkpt lat="44.04395" lon="6.83245">
        <ele>831.5</ele>
        <time>2017-05-27T12:24:00Z</time>
      </trkpt>
      <trkpt lat="44.04399" lon="6.83236">
        <ele>830.5</ele>
        <time>2017-05-27T12:24:07Z</time>
      </trkpt>
      <trkpt lat="44.04403" lon="6.83226">
        <ele>829.3</ele>
        <time>2017-05-27T12:24:14Z</time>
      </trkpt>
      <trkpt lat="44.04405" lon="6.83216">
        <ele>828.8</ele>
        <time>2017-05-27T12:24:20Z</time>
      </trkpt>
      <trkpt lat="44.04407" lon="6.83208">
        <ele>827.7</ele>
        <time>2017-05-27T12:24:27Z</time>
      </trkpt>
      <trkpt lat="44.04408" lon="6.83198">
        <ele>826.2</ele>
        <time>2017-05-27T12:24:34Z</time>
      </trkpt>
      <trkpt lat="44.04409" lon="6.83189">
        <ele>824</ele>
        <time>2017-05-27T12:24:41Z</time>
      </trkpt>
      <trkpt lat="44.04411" lon="6.83182">
        <ele>821.6</ele>
        <time>2017-05-27T12:24:48Z</time>
      </trkpt>
      <trkpt lat="44.04411" lon="6.8318">
        <ele>821.1</ele>
        <time>2017-05-27T12:24:55Z</time>
      </trkpt>
      <trkpt lat="44.04411" lon="6.8318">
        <ele>821.1</ele>
        <time>2017-05-27T12:24:57Z</time>
      </trkpt>
      <trkpt lat="44.04403" lon="6.83178">
        <ele>818.2</ele>
        <time>2017-05-27T12:25:10Z</time>
      </trkpt>
      <trkpt lat="44.04399" lon="6.83181">
        <ele>817.7</ele>
        <time>2017-05-27T12:25:17Z</time>
      </trkpt>
      <trkpt lat="44.04396" lon="6.83187">
        <ele>816.8</ele>
        <time>2017-05-27T12:25:24Z</time>
      </trkpt>
      <trkpt lat="44.04391" lon="6.83194">
        <ele>814.8</ele>
        <time>2017-05-27T12:25:31Z</time>
      </trkpt>
      <trkpt lat="44.04391" lon="6.83191">
        <ele>813</ele>
        <time>2017-05-27T12:25:38Z</time>
      </trkpt>
      <trkpt lat="44.0439" lon="6.83187">
        <ele>812.5</ele>
        <time>2017-05-27T12:25:45Z</time>
      </trkpt>
      <trkpt lat="44.04388" lon="6.8318">
        <ele>810.9</ele>
        <time>2017-05-27T12:25:52Z</time>
      </trkpt>
      <trkpt lat="44.04387" lon="6.83172">
        <ele>810.7</ele>
        <time>2017-05-27T12:25:59Z</time>
      </trkpt>
      <trkpt lat="44.04387" lon="6.83164">
        <ele>810.1</ele>
        <time>2017-05-27T12:26:06Z</time>
      </trkpt>
      <trkpt lat="44.04383" lon="6.83164">
        <ele>809.3</ele>
        <time>2017-05-27T12:26:13Z</time>
      </trkpt>
      <trkpt lat="44.0438" lon="6.83161">
        <ele>808.7</ele>
        <time>2017-05-27T12:26:20Z</time>
      </trkpt>
      <trkpt lat="44.04382" lon="6.83155">
        <ele>807.7</ele>
        <time>2017-05-27T12:26:27Z</time>
      </trkpt>
      <trkpt lat="44.04383" lon="6.83148">
        <ele>806.1</ele>
        <time>2017-05-27T12:26:34Z</time>
      </trkpt>
      <trkpt lat="44.04378" lon="6.83145">
        <ele>805.2</ele>
        <time>2017-05-27T12:26:41Z</time>
      </trkpt>
      <trkpt lat="44.04375" lon="6.83146">
        <ele>804.4</ele>
        <time>2017-05-27T12:26:48Z</time>
      </trkpt>
      <trkpt lat="44.04376" lon="6.83142">
        <ele>803.9</ele>
        <time>2017-05-27T12:26:55Z</time>
      </trkpt>
      <trkpt lat="44.04376" lon="6.83135">
        <ele>803.3</ele>
        <time>2017-05-27T12:27:02Z</time>
      </trkpt>
      <trkpt lat="44.04371" lon="6.83133">
        <ele>802.7</ele>
        <time>2017-05-27T12:27:09Z</time>
      </trkpt>
      <trkpt lat="44.04366" lon="6.83135">
        <ele>800.1</ele>
        <time>2017-05-27T12:27:16Z</time>
      </trkpt>
      <trkpt lat="44.0436" lon="6.8314">
        <ele>796.7</ele>
        <time>2017-05-27T12:27:23Z</time>
      </trkpt>
      <trkpt lat="44.04357" lon="6.83148">
        <ele>792.3</ele>
        <time>2017-05-27T12:27:30Z</time>
      </trkpt>
      <trkpt lat="44.04353" lon="6.83154">
        <ele>789.6</ele>
        <time>2017-05-27T12:27:37Z</time>
      </trkpt>
      <trkpt lat="44.0435" lon="6.8316">
        <ele>786.7</ele>
        <time>2017-05-27T12:27:44Z</time>
      </trkpt>
      <trkpt lat="44.04346" lon="6.83165">
        <ele>785.1</ele>
        <time>2017-05-27T12:27:51Z</time>
      </trkpt>
      <trkpt lat="44.04344" lon="6.83171">
        <ele>783.3</ele>
        <time>2017-05-27T12:27:58Z</time>
      </trkpt>
      <trkpt lat="44.04344" lon="6.83172">
        <ele>783.8</ele>
        <time>2017-05-27T12:28:05Z</time>
      </trkpt>
      <trkpt lat="44.04339" lon="6.83181">
        <ele>781.8</ele>
        <time>2017-05-27T12:28:14Z</time>
      </trkpt>
      <trkpt lat="44.04335" lon="6.83189">
        <ele>780.4</ele>
        <time>2017-05-27T12:28:20Z</time>
      </trkpt>
      <trkpt lat="44.04329" lon="6.83198">
        <ele>781.1</ele>
        <time>2017-05-27T12:28:26Z</time>
      </trkpt>
      <trkpt lat="44.04323" lon="6.83205">
        <ele>782</ele>
        <time>2017-05-27T12:28:30Z</time>
      </trkpt>
      <trkpt lat="44.0432" lon="6.83209">
        <ele>783.5</ele>
        <time>2017-05-27T12:28:37Z</time>
      </trkpt>
      <trkpt lat="44.04316" lon="6.8321">
        <ele>785.3</ele>
        <time>2017-05-27T12:28:44Z</time>
      </trkpt>
      <trkpt lat="44.04317" lon="6.8321">
        <ele>785.6</ele>
        <time>2017-05-27T12:28:51Z</time>
      </trkpt>
      <trkpt lat="44.0431" lon="6.83212">
        <ele>785.5</ele>
        <time>2017-05-27T12:29:01Z</time>
      </trkpt>
      <trkpt lat="44.04307" lon="6.83216">
        <ele>783.8</ele>
        <time>2017-05-27T12:29:08Z</time>
      </trkpt>
      <trkpt lat="44.04303" lon="6.83225">
        <ele>782.3</ele>
        <time>2017-05-27T12:29:15Z</time>
      </trkpt>
      <trkpt lat="44.04298" lon="6.83229">
        <ele>781.9</ele>
        <time>2017-05-27T12:29:22Z</time>
      </trkpt>
      <trkpt lat="44.04291" lon="6.83231">
        <ele>781.8</ele>
        <time>2017-05-27T12:29:29Z</time>
      </trkpt>
      <trkpt lat="44.04284" lon="6.83237">
        <ele>782</ele>
        <time>2017-05-27T12:29:35Z</time>
      </trkpt>
      <trkpt lat="44.0428" lon="6.83247">
        <ele>782.4</ele>
        <time>2017-05-27T12:29:41Z</time>
      </trkpt>
      <trkpt lat="44.04282" lon="6.83257">
        <ele>782.8</ele>
        <time>2017-05-27T12:29:48Z</time>
      </trkpt>
      <trkpt lat="44.04278" lon="6.83266">
        <ele>783.2</ele>
        <time>2017-05-27T12:29:54Z</time>
      </trkpt>
      <trkpt lat="44.04275" lon="6.83277">
        <ele>783.9</ele>
        <time>2017-05-27T12:30:00Z</time>
      </trkpt>
      <trkpt lat="44.04267" lon="6.83282">
        <ele>784.6</ele>
        <time>2017-05-27T12:30:07Z</time>
      </trkpt>
      <trkpt lat="44.04261" lon="6.8329">
        <ele>784.8</ele>
        <time>2017-05-27T12:30:13Z</time>
      </trkpt>
      <trkpt lat="44.04256" lon="6.83298">
        <ele>785.1</ele>
        <time>2017-05-27T12:30:19Z</time>
      </trkpt>
      <trkpt lat="44.0425" lon="6.83303">
        <ele>784.3</ele>
        <time>2017-05-27T12:30:26Z</time>
      </trkpt>
      <trkpt lat="44.04248" lon="6.83299">
        <ele>785.2</ele>
        <time>2017-05-27T12:30:33Z</time>
      </trkpt>
      <trkpt lat="44.04243" lon="6.83292">
        <ele>786.4</ele>
        <time>2017-05-27T12:30:39Z</time>
      </trkpt>
      <trkpt lat="44.04237" lon="6.83283">
        <ele>787.1</ele>
        <time>2017-05-27T12:30:45Z</time>
      </trkpt>
      <trkpt lat="44.04233" lon="6.83273">
        <ele>788.7</ele>
        <time>2017-05-27T12:30:51Z</time>
      </trkpt>
      <trkpt lat="44.04229" lon="6.83265">
        <ele>789.2</ele>
        <time>2017-05-27T12:30:57Z</time>
      </trkpt>
    </trkseg>
  </trk>
</gpx>